Time;durP1;ratioP1;P1;durP2;ratioP2;P2;SDS_P1;SDS_P2;PMS_P1;PMS_P2;Temp;Humidity;BMP_temperature;BMP_pressure;BME280_temperature;BME280_humidity;BME280_pressure;Samples;Min_cycle;Max_cycle;Signal;HPM_P1;HPM_P2
2024/01/29 00:00:38;;;;;;;;;;;0.00;99.90;;;-146.41;100.00;57768.22;4983266;28;1341;-71
2024/01/29 00:03:06;;;;;;;;;;;0.00;99.90;;;-146.41;100.00;57768.22;4992696;28;1492;-71
2024/01/29 00:05:32;;;;;;;;;;;0.00;99.90;;;-146.41;100.00;57768.22;4996447;28;1296;-71
2024/01/29 00:08:00;;;;;;;;;;;-0.10;99.90;;;-146.41;100.00;57768.22;4981723;28;1421;-72
2024/01/29 00:10:27;;;;;;;;;;;-0.10;99.90;;;-146.41;100.00;57768.22;4981537;28;1389;-71
2024/01/29 00:12:54;;;;;;;;;;;-0.10;99.90;;;-146.41;100.00;57768.22;4977568;28;1307;-72
2024/01/29 00:15:21;;;;;;;;;;;0.00;99.90;;;-146.41;100.00;57768.22;4981580;28;1985;-72
2024/01/29 00:17:48;;;;;;;;;;;-0.10;99.90;;;-146.41;100.00;57768.22;4987339;28;1781;-72
2024/01/29 00:20:14;;;;;;;;;;;-0.10;99.90;;;-146.41;100.00;57768.22;4982812;28;1404;-71
2024/01/29 00:22:41;;;;;;;;;;;-0.10;99.90;;;-146.41;100.00;57768.22;4980760;28;1876;-72
2024/01/29 00:25:08;;;;;;;;;;;-0.10;99.90;;;-146.41;100.00;57768.22;4982660;28;1462;-71
2024/01/29 00:27:35;;;;;;;;;;;-0.10;99.90;;;-146.41;100.00;57768.22;4980277;28;1444;-72
2024/01/29 00:30:03;;;;;;;;;;;0.00;99.90;;;-146.41;100.00;57768.22;4981514;28;1406;-71
2024/01/29 00:32:29;;;;;;;;;;;0.00;99.90;;;-146.41;100.00;57768.22;4979999;28;1454;-71
2024/01/29 00:34:57;;;;;;;;;;;0.00;99.90;;;-146.41;100.00;57768.22;4978469;28;1461;-70
2024/01/29 00:37:26;;;;;;;;;;;0.00;99.90;;;-146.41;100.00;57768.22;4983615;28;1930;-72
2024/01/29 00:39:52;;;;;;;;;;;0.10;99.90;;;-146.41;100.00;57768.22;4988002;28;1475;-72
2024/01/29 00:42:19;;;;;;;;;;;0.10;99.90;;;-146.41;100.00;57768.22;4994902;28;1425;-72
2024/01/29 00:44:49;;;;;;;;;;;0.10;99.90;;;-146.41;100.00;57768.22;4980288;28;1512;-73
2024/01/29 00:47:16;;;;;;;;;;;0.10;99.90;;;-146.41;100.00;57768.22;4982496;28;1382;-72
2024/01/29 00:49:43;;;;;;;;;;;0.00;99.90;;;-146.41;100.00;57768.22;4981045;28;2034;-71
2024/01/29 00:52:10;;;;;;;;;;;0.00;99.90;;;-146.41;100.00;57768.22;4983977;28;1413;-70
2024/01/29 00:54:38;;;;;;;;;;;0.00;99.90;;;-146.41;100.00;57768.22;4981026;28;1516;-70
2024/01/29 00:57:05;;;;;;;;;;;0.00;99.90;;;-146.41;100.00;57768.22;4979501;28;1914;-69
2024/01/29 00:59:32;;;;;;;;;;;0.10;99.90;;;-146.41;100.00;57768.22;4985192;28;1298;-70
2024/01/29 01:01:59;;;;;;;;;;;0.10;99.90;;;-146.41;100.00;57768.22;4982371;28;1342;-71
2024/01/29 01:04:26;;;;;;;;;;;0.10;99.90;;;-146.41;100.00;57768.22;4979293;28;1338;-70
2024/01/29 01:06:53;;;;;;;;;;;0.10;99.90;;;-146.41;100.00;57768.22;4978759;28;1287;-70
2024/01/29 01:09:20;;;;;;;;;;;0.10;99.90;;;-146.41;100.00;57768.22;4994541;28;1395;-71
2024/01/29 01:11:47;;;;;;;;;;;0.10;99.90;;;-146.41;100.00;57768.22;4984552;28;1314;-70
2024/01/29 01:14:14;;;;;;;;;;;0.00;99.90;;;-146.41;100.00;57768.22;4979580;28;1356;-70
2024/01/29 01:16:41;;;;;;;;;;;0.00;99.90;;;-146.41;100.00;57768.22;4981296;28;1926;-72
2024/01/29 01:19:08;;;;;;;;;;;0.10;99.90;;;-146.41;100.00;57768.22;4980220;28;1337;-70
2024/01/29 01:21:35;;;;;;;;;;;0.10;99.90;;;-146.41;100.00;57768.22;4993160;28;1540;-70
2024/01/29 01:24:02;;;;;;;;;;;0.10;99.90;;;-146.41;100.00;57768.22;5010777;28;1290;-69
2024/01/29 01:26:29;;;;;;;;;;;0.10;99.90;;;-146.41;100.00;57768.22;4982624;28;1294;-69
2024/01/29 01:28:56;;;;;;;;;;;0.20;99.90;;;-146.41;100.00;57768.22;4981110;28;1518;-70
2024/01/29 01:31:23;;;;;;;;;;;0.20;99.90;;;-146.41;100.00;57768.22;4980590;28;1404;-70
2024/01/29 01:33:50;;;;;;;;;;;0.20;99.90;;;-146.41;100.00;57768.22;4980568;28;1450;-72
2024/01/29 01:36:17;;;;;;;;;;;0.20;99.90;;;-146.41;100.00;57768.22;4981817;28;1960;-71
2024/01/29 01:38:43;;;;;;;;;;;0.20;99.90;;;-146.41;100.00;57768.22;4981648;28;1283;-72
2024/01/29 01:41:10;;;;;;;;;;;0.20;99.90;;;-146.41;100.00;57768.22;4981837;28;1255;-73
2024/01/29 01:43:37;;;;;;;;;;;0.10;99.90;;;-146.41;100.00;57768.22;4977334;28;1141;-72
2024/01/29 01:46:04;;;;;;;;;;;0.10;99.90;;;-146.41;100.00;57768.22;5000915;28;1266;-72
2024/01/29 01:48:35;;;;;;;;;;;0.00;99.90;;;-146.41;100.00;57768.22;4982640;28;1279;-71
2024/01/29 01:51:04;;;;;;;;;;;0.00;99.90;;;-146.41;100.00;57768.22;4981804;28;1538;-72
2024/01/29 01:53:33;;;;;;;;;;;0.00;99.90;;;-146.41;100.00;57768.22;4995817;28;1464;-71
2024/01/29 01:56:00;;;;;;;;;;;0.00;99.90;;;-146.41;100.00;57768.22;5008734;28;1910;-72
2024/01/29 01:58:27;;;;;;;;;;;-0.10;99.90;;;-146.41;100.00;57768.22;4974443;28;1359;-72
2024/01/29 02:00:58;;;;;;;;;;;0.00;99.90;;;-146.41;100.00;57768.22;4980689;28;1312;-72
2024/01/29 02:03:28;;;;;;;;;;;0.00;99.90;;;-146.41;100.00;57768.22;4978697;28;1648;-71
2024/01/29 02:05:55;;;;;;;;;;;0.00;99.90;;;-146.41;100.00;57768.22;4983033;28;1379;-72
2024/01/29 02:08:23;;;;;;;;;;;0.00;99.90;;;-146.41;100.00;57768.22;4996152;28;1295;-71
2024/01/29 02:10:52;;;;;;;;;;;0.00;99.90;;;-146.41;100.00;57768.22;4996281;28;1375;-71
2024/01/29 02:13:19;;;;;;;;;;;0.00;99.90;;;-146.41;100.00;57768.22;4980954;28;1253;-72
2024/01/29 02:15:46;;;;;;;;;;;0.00;99.90;;;-146.41;100.00;57768.22;4980090;28;1906;-72
2024/01/29 02:18:13;;;;;;;;;;;0.00;99.90;;;-146.41;100.00;57768.22;4981442;28;1066;-72
2024/01/29 02:20:40;;;;;;;;;;;-0.10;99.90;;;-146.41;100.00;57768.22;5011759;28;1295;-72
2024/01/29 02:23:07;;;;;;;;;;;0.00;99.90;;;-146.41;100.00;57768.22;4984231;28;1385;-71
2024/01/29 02:25:34;;;;;;;;;;;0.00;99.90;;;-146.41;100.00;57768.22;4977104;28;1453;-71
2024/01/29 02:28:01;;;;;;;;;;;0.00;99.90;;;-146.41;100.00;57768.22;4999345;28;1266;-71
2024/01/29 02:30:28;;;;;;;;;;;-0.10;99.90;;;-146.41;100.00;57768.22;4980703;28;1252;-71
2024/01/29 02:32:55;;;;;;;;;;;0.00;99.90;;;-146.41;100.00;57768.22;4979110;28;1631;-74
2024/01/29 02:35:23;;;;;;;;;;;-0.10;99.90;;;-146.41;100.00;57768.22;4982355;28;1377;-71
2024/01/29 02:37:50;;;;;;;;;;;-0.10;99.90;;;-146.41;100.00;57768.22;4978058;28;1898;-71
2024/01/29 02:40:17;;;;;;;;;;;-0.10;99.90;;;-146.41;100.00;57768.22;4982340;28;1545;-71
2024/01/29 02:42:44;;;;;;;;;;;-0.10;99.90;;;-146.41;100.00;57768.22;4993889;28;1264;-71
2024/01/29 02:45:11;;;;;;;;;;;-0.10;99.90;;;-146.41;100.00;57768.22;4978770;28;1437;-71
2024/01/29 02:47:38;;;;;;;;;;;0.00;99.90;;;-146.41;100.00;57768.22;4976112;28;1177;-71
2024/01/29 02:50:05;;;;;;;;;;;-0.10;99.90;;;-146.41;100.00;57768.22;4979082;28;1427;-72
2024/01/29 02:52:32;;;;;;;;;;;-0.10;99.90;;;-146.41;100.00;57768.22;4979124;28;1340;-71
2024/01/29 02:54:59;;;;;;;;;;;0.00;99.90;;;-146.41;100.00;57768.22;4982248;28;1386;-70
2024/01/29 02:57:26;;;;;;;;;;;0.00;99.90;;;-146.41;100.00;57768.22;5008826;28;1996;-71
2024/01/29 02:59:54;;;;;;;;;;;0.00;99.90;;;-146.41;100.00;57768.22;4978808;28;1389;-70
2024/01/29 03:02:20;;;;;;;;;;;0.00;99.90;;;-146.41;100.00;57768.22;4981515;28;1035;-71
2024/01/29 03:04:47;;;;;;;;;;;0.10;99.90;;;-146.41;100.00;57768.22;4979982;28;1277;-69
2024/01/29 03:07:14;;;;;;;;;;;0.00;99.90;;;-146.41;100.00;57768.22;4980983;28;1392;-72
2024/01/29 03:09:41;;;;;;;;;;;0.00;99.90;;;-146.41;100.00;57768.22;4977369;28;1794;-70
2024/01/29 03:12:08;;;;;;;;;;;0.00;99.90;;;-146.41;100.00;57768.22;5006703;28;1352;-70
2024/01/29 03:14:35;;;;;;;;;;;-0.10;99.90;;;-146.41;100.00;57768.22;4980399;28;1469;-70
2024/01/29 03:17:02;;;;;;;;;;;0.00;99.90;;;-146.41;100.00;57768.22;4980701;28;2010;-70
2024/01/29 03:19:29;;;;;;;;;;;0.00;99.90;;;-146.41;100.00;57768.22;4977418;28;1348;-70
2024/01/29 03:21:56;;;;;;;;;;;0.00;99.90;;;-146.41;100.00;57768.22;4974364;28;1245;-69
2024/01/29 03:24:23;;;;;;;;;;;0.10;99.90;;;-146.41;100.00;57768.22;4978701;28;1254;-72
2024/01/29 03:26:50;;;;;;;;;;;0.20;99.90;;;-146.41;100.00;57768.22;4979491;28;1283;-72
2024/01/29 03:29:17;;;;;;;;;;;0.30;99.90;;;-146.41;100.00;57768.22;5008613;28;1348;-72
2024/01/29 03:31:44;;;;;;;;;;;0.50;99.90;;;-146.41;100.00;57768.22;4978710;28;1189;-72
2024/01/29 03:34:10;;;;;;;;;;;0.60;99.90;;;-146.41;100.00;57768.22;4993420;28;1364;-73
2024/01/29 03:36:37;;;;;;;;;;;0.70;99.90;;;-146.41;100.00;57768.22;4993446;28;1977;-72
2024/01/29 03:39:04;;;;;;;;;;;0.80;99.90;;;-146.41;100.00;57768.22;4979460;28;1252;-73
2024/01/29 03:41:34;;;;;;;;;;;0.90;99.90;;;-146.41;100.00;57768.22;4977371;28;1113;-72
2024/01/29 03:44:02;;;;;;;;;;;0.90;99.90;;;-146.41;100.00;57768.22;4984410;28;1229;-72
2024/01/29 03:46:29;;;;;;;;;;;0.90;99.90;;;-146.41;100.00;57768.22;4984666;28;1323;-70
2024/01/29 03:48:56;;;;;;;;;;;0.90;99.90;;;-146.41;100.00;57768.22;4981781;28;1357;-72
2024/01/29 03:51:23;;;;;;;;;;;0.90;99.90;;;-146.41;100.00;57768.22;4983409;28;1291;-73
2024/01/29 03:53:50;;;;;;;;;;;0.90;99.90;;;-146.41;100.00;57768.22;4984533;28;1368;-72
2024/01/29 03:56:17;;;;;;;;;;;0.90;99.90;;;-146.41;100.00;57768.22;4985148;28;1902;-72
2024/01/29 03:58:44;;;;;;;;;;;1.00;99.90;;;-146.41;100.00;57768.22;4983696;28;1259;-73
2024/01/29 04:01:11;;;;;;;;;;;1.20;99.90;;;-146.41;100.00;57768.22;4980391;28;1326;-72
2024/01/29 04:03:39;;;;;;;;;;;1.20;99.90;;;-146.41;100.00;57768.22;5012873;28;1450;-72
2024/01/29 04:06:07;;;;;;;;;;;1.40;99.90;;;-146.41;100.00;57768.22;4981462;28;1273;-72
2024/01/29 04:08:34;;;;;;;;;;;1.40;99.90;;;-146.41;100.00;57768.22;4984531;28;1330;-72
2024/01/29 04:11:01;;;;;;;;;;;1.60;99.90;;;-146.41;100.00;57768.22;4981534;28;1346;-72
2024/01/29 04:13:28;;;;;;;;;;;1.60;99.90;;;-146.41;100.00;57768.22;4980727;28;2094;-70
2024/01/29 04:15:55;;;;;;;;;;;1.80;99.90;;;-146.41;100.00;57768.22;4981603;28;1659;-70
2024/01/29 04:18:23;;;;;;;;;;;2.00;99.90;;;-146.41;100.00;57768.22;4998293;28;1906;-71
2024/01/29 04:20:50;;;;;;;;;;;2.10;99.90;;;-146.41;100.00;57768.22;4982581;28;1322;-70
2024/01/29 04:23:17;;;;;;;;;;;2.10;99.90;;;-146.41;100.00;57768.22;5010052;28;1271;-71
2024/01/29 04:25:44;;;;;;;;;;;2.10;99.90;;;-146.41;100.00;57768.22;4983065;28;1408;-70
2024/01/29 04:28:11;;;;;;;;;;;1.90;99.90;;;-146.41;100.00;57768.22;4984015;28;1084;-70
2024/01/29 04:30:38;;;;;;;;;;;1.80;99.90;;;-146.41;100.00;57768.22;4982102;28;1307;-70
2024/01/29 04:33:05;;;;;;;;;;;1.80;99.90;;;-146.41;100.00;57768.22;4981342;28;1343;-71
2024/01/29 04:35:32;;;;;;;;;;;1.80;99.90;;;-146.41;100.00;57768.22;4984091;28;1391;-69
2024/01/29 04:37:59;;;;;;;;;;;1.80;99.90;;;-146.41;100.00;57768.22;4978630;28;1985;-70
2024/01/29 04:40:26;;;;;;;;;;;1.80;99.90;;;-146.41;100.00;57768.22;4981396;28;1360;-70
2024/01/29 04:42:53;;;;;;;;;;;1.70;99.90;;;-146.41;100.00;57768.22;4977747;28;1642;-70
2024/01/29 04:45:20;;;;;;;;;;;1.70;99.90;;;-146.41;100.00;57768.22;4982099;28;1458;-71
2024/01/29 04:47:46;;;;;;;;;;;1.70;99.90;;;-146.41;100.00;57768.22;4980004;28;1298;-71
2024/01/29 04:50:13;;;;;;;;;;;1.60;99.90;;;-146.41;100.00;57768.22;4981602;28;1380;-71
2024/01/29 04:52:40;;;;;;;;;;;1.60;99.90;;;-146.41;100.00;57768.22;4984350;28;1572;-70
2024/01/29 04:55:07;;;;;;;;;;;1.60;99.90;;;-146.41;100.00;57768.22;4980705;28;1460;-70
2024/01/29 04:57:34;;;;;;;;;;;1.50;99.90;;;-146.41;100.00;57768.22;4984038;28;1903;-70
2024/01/29 05:00:03;;;;;;;;;;;1.60;99.90;;;-146.41;100.00;57768.22;4983110;28;1771;-70
2024/01/29 05:02:30;;;;;;;;;;;1.60;99.90;;;-146.41;100.00;57768.22;4994955;28;1243;-71
2024/01/29 05:04:57;;;;;;;;;;;1.60;99.90;;;-146.41;100.00;57768.22;4983369;28;1382;-71
2024/01/29 05:07:23;;;;;;;;;;;1.50;99.90;;;-146.41;100.00;57768.22;4982525;28;1287;-70
2024/01/29 05:09:50;;;;;;;;;;;1.50;99.90;;;-146.41;100.00;57768.22;4978575;28;1236;-70
2024/01/29 05:12:17;;;;;;;;;;;1.40;99.90;;;-146.41;100.00;57768.22;4978976;28;1267;-70
2024/01/29 05:14:44;;;;;;;;;;;1.40;99.90;;;-146.41;100.00;57768.22;4978892;28;1410;-70
2024/01/29 05:17:11;;;;;;;;;;;1.40;99.90;;;-146.41;100.00;57768.22;4994172;28;1960;-70
2024/01/29 05:19:40;;;;;;;;;;;1.30;99.90;;;-146.41;100.00;57768.22;4982589;28;1493;-70
2024/01/29 05:22:07;;;;;;;;;;;1.20;99.90;;;-146.41;100.00;57768.22;4982842;28;1422;-71
2024/01/29 05:24:34;;;;;;;;;;;1.20;99.90;;;-146.41;100.00;57768.22;4977625;28;1387;-70
2024/01/29 05:27:01;;;;;;;;;;;1.20;99.90;;;-146.41;100.00;57768.22;4982412;28;1303;-71
2024/01/29 05:29:28;;;;;;;;;;;1.30;99.90;;;-146.41;100.00;57768.22;4999067;28;1320;-70
2024/01/29 05:31:57;;;;;;;;;;;1.40;99.90;;;-146.41;100.00;57768.22;4997659;28;1294;-70
2024/01/29 05:34:24;;;;;;;;;;;1.50;99.90;;;-146.41;100.00;57768.22;4983518;28;1466;-70
2024/01/29 05:36:51;;;;;;;;;;;1.80;99.90;;;-146.41;100.00;57768.22;4980865;28;1981;-70
2024/01/29 05:39:18;;;;;;;;;;;2.10;99.90;;;-146.41;100.00;57768.22;4994819;28;1252;-70
2024/01/29 05:41:45;;;;;;;;;;;2.40;99.90;;;-146.41;100.00;57768.22;4980820;28;1314;-70
2024/01/29 05:44:11;;;;;;;;;;;2.80;99.90;;;-146.41;100.00;57768.22;4995399;28;1459;-70
2024/01/29 05:46:38;;;;;;;;;;;3.10;99.90;;;-146.41;100.00;57768.22;4980397;28;1328;-70
2024/01/29 05:49:05;;;;;;;;;;;3.50;99.90;;;-146.41;100.00;57768.22;4982065;28;1517;-70
2024/01/29 05:51:32;;;;;;;;;;;3.80;99.90;;;-146.41;100.00;57768.22;4982002;28;1235;-70
2024/01/29 05:54:00;;;;;;;;;;;4.10;99.90;;;-146.41;100.00;57768.22;4977402;28;1987;-70
2024/01/29 05:56:27;;;;;;;;;;;4.30;99.90;;;-146.41;100.00;57768.22;4984288;28;1291;-71
2024/01/29 05:58:54;;;;;;;;;;;4.30;99.90;;;-146.41;100.00;57768.22;4980749;28;2125;-70
2024/01/29 06:01:20;;;;;;;;;;;4.30;99.90;;;-146.41;100.00;57768.22;4980558;28;1386;-70
2024/01/29 06:03:47;;;;;;;;;;;4.30;99.90;;;-146.41;100.00;57768.22;4979986;28;1364;-70
2024/01/29 06:06:14;;;;;;;;;;;4.30;99.90;;;-146.41;100.00;57768.22;4980207;28;1190;-70
2024/01/29 06:08:41;;;;;;;;;;;4.20;99.90;;;-146.41;100.00;57768.22;4976993;28;1168;-71
2024/01/29 06:11:08;;;;;;;;;;;4.30;99.90;;;-146.41;100.00;57768.22;4979721;28;1282;-70
2024/01/29 06:13:35;;;;;;;;;;;4.30;99.90;;;-146.41;100.00;57768.22;4977705;28;993;-70
2024/01/29 06:16:02;;;;;;;;;;;4.40;99.90;;;-146.41;100.00;57768.22;4975652;28;1398;-70
2024/01/29 06:18:29;;;;;;;;;;;4.40;99.90;;;-146.41;100.00;57768.22;4979704;28;1957;-71
2024/01/29 06:20:56;;;;;;;;;;;4.50;99.90;;;-146.41;100.00;57768.22;4972800;28;1066;-70
2024/01/29 06:23:23;;;;;;;;;;;4.40;99.90;;;-146.41;100.00;57768.22;4983107;28;1115;-70
2024/01/29 06:25:50;;;;;;;;;;;4.40;99.90;;;-146.41;100.00;57768.22;4994572;28;1197;-71
2024/01/29 06:28:17;;;;;;;;;;;4.40;99.90;;;-146.41;100.00;57768.22;4975843;28;1170;-69
2024/01/29 06:30:44;;;;;;;;;;;4.40;99.90;;;-146.41;100.00;57768.22;4978686;28;1264;-70
2024/01/29 06:33:11;;;;;;;;;;;4.50;99.90;;;-146.41;100.00;57768.22;4977000;28;2121;-70
2024/01/29 06:35:38;;;;;;;;;;;4.60;99.90;;;-146.41;100.00;57768.22;4990374;28;1368;-71
2024/01/29 06:38:05;;;;;;;;;;;4.60;99.90;;;-146.41;100.00;57768.22;4979723;28;1981;-70
2024/01/29 06:40:32;;;;;;;;;;;4.60;99.90;;;-146.41;100.00;57768.22;4979729;28;1281;-70
2024/01/29 06:42:59;;;;;;;;;;;4.50;99.90;;;-146.41;100.00;57768.22;4972499;28;1112;-71
2024/01/29 06:45:25;;;;;;;;;;;4.60;99.90;;;-146.41;100.00;57768.22;4977467;28;1327;-70
2024/01/29 06:47:52;;;;;;;;;;;4.80;99.90;;;-146.41;100.00;57768.22;4975865;28;1241;-71
2024/01/29 06:50:19;;;;;;;;;;;4.90;99.90;;;-146.41;100.00;57768.22;4976148;28;1070;-71
2024/01/29 06:52:47;;;;;;;;;;;4.90;99.90;;;-146.41;100.00;57768.22;4977185;28;1114;-70
2024/01/29 06:55:13;;;;;;;;;;;5.00;99.90;;;-146.41;100.00;57768.22;4975123;28;1381;-71
2024/01/29 06:57:41;;;;;;;;;;;4.90;99.90;;;-146.41;100.00;57768.22;4983411;28;1906;-71
2024/01/29 07:00:09;;;;;;;;;;;4.90;99.90;;;-146.41;100.00;57768.22;4977291;28;1092;-72
2024/01/29 07:02:36;;;;;;;;;;;4.80;99.90;;;-146.41;100.00;57768.22;4976526;28;1205;-70
2024/01/29 07:05:03;;;;;;;;;;;4.80;99.90;;;-146.41;100.00;57768.22;4993980;28;1471;-71
2024/01/29 07:07:31;;;;;;;;;;;4.80;99.90;;;-146.41;100.00;57768.22;4976117;28;1367;-71
2024/01/29 07:09:58;;;;;;;;;;;4.70;99.90;;;-146.41;100.00;57768.22;4976401;28;1098;-70
2024/01/29 07:12:24;;;;;;;;;;;4.70;99.90;;;-146.41;100.00;57768.22;5009233;28;1343;-71
2024/01/29 07:14:53;;;;;;;;;;;4.60;99.90;;;-146.41;100.00;57768.22;4979849;28;1443;-70
2024/01/29 07:17:21;;;;;;;;;;;4.60;99.90;;;-146.41;100.00;57768.22;4979509;28;1983;-70
2024/01/29 07:19:48;;;;;;;;;;;4.50;99.90;;;-146.41;100.00;57768.22;4985681;28;1383;-71
2024/01/29 07:22:19;;;;;;;;;;;4.50;99.90;;;-146.41;100.00;57768.22;4978788;28;1062;-71
2024/01/29 07:24:46;;;;;;;;;;;4.40;99.90;;;-146.41;100.00;57768.22;4980974;28;1313;-70
2024/01/29 07:27:13;;;;;;;;;;;4.30;99.90;;;-146.41;100.00;57768.22;4980821;28;1628;-70
2024/01/29 07:29:40;;;;;;;;;;;4.20;99.90;;;-146.41;100.00;57768.22;4981973;28;1098;-71
2024/01/29 07:32:07;;;;;;;;;;;4.30;99.90;;;-146.41;100.00;57768.22;4979579;28;1078;-72
2024/01/29 07:34:34;;;;;;;;;;;4.20;99.90;;;-146.41;100.00;57768.22;4997077;28;1443;-70
2024/01/29 07:37:02;;;;;;;;;;;4.20;99.90;;;-146.41;100.00;57768.22;4978874;28;1077;-70
2024/01/29 07:39:30;;;;;;;;;;;4.20;99.90;;;-146.41;100.00;57768.22;4980949;28;991;-71
2024/01/29 07:41:56;;;;;;;;;;;4.20;99.90;;;-146.41;100.00;57768.22;4979977;28;1083;-70
2024/01/29 07:44:23;;;;;;;;;;;4.20;99.90;;;-146.41;100.00;57768.22;4978506;28;1320;-70
2024/01/29 07:47:08;;;;;;;;;;;4.30;99.90;;;-146.41;100.00;57768.22;4976067;28;1090;-70
2024/01/29 07:49:35;;;;;;;;;;;4.30;99.90;;;-146.41;100.00;57768.22;4981924;28;1006;-70
2024/01/29 07:52:02;;;;;;;;;;;4.20;99.90;;;-146.41;100.00;57768.22;4981330;28;1034;-71
2024/01/29 07:54:29;;;;;;;;;;;4.10;99.90;;;-146.41;100.00;57768.22;4983463;28;1395;-71
2024/01/29 07:56:56;;;;;;;;;;;3.90;99.90;;;-146.41;100.00;57768.22;4995365;28;1063;-71
2024/01/29 07:59:23;;;;;;;;;;;3.60;99.90;;;-146.41;100.00;57768.22;4981165;28;1923;-70
2024/01/29 08:01:50;;;;;;;;;;;3.50;99.90;;;-146.41;100.00;57768.22;4980288;28;1149;-71
2024/01/29 08:04:17;;;;;;;;;;;3.50;99.90;;;-146.41;100.00;57768.22;4984369;28;1268;-71
2024/01/29 08:06:44;;;;;;;;;;;3.50;99.90;;;-146.41;100.00;57768.22;4979649;28;1069;-71
2024/01/29 08:09:11;;;;;;;;;;;3.40;99.90;;;-146.41;100.00;57768.22;4983907;28;1415;-70
2024/01/29 08:11:39;;;;;;;;;;;3.40;99.90;;;-146.41;100.00;57768.22;4996136;28;1236;-71
2024/01/29 08:14:06;;;;;;;;;;;3.50;99.90;;;-146.41;100.00;57768.22;4982624;28;1308;-70
2024/01/29 08:16:33;;;;;;;;;;;3.50;99.90;;;-146.41;100.00;57768.22;4981814;28;1094;-71
2024/01/29 08:19:00;;;;;;;;;;;3.50;99.90;;;-146.41;100.00;57768.22;4966360;28;1918;-71
2024/01/29 08:21:27;;;;;;;;;;;3.70;99.90;;;-146.41;100.00;57768.22;4980419;28;1218;-70
2024/01/29 08:23:55;;;;;;;;;;;4.10;99.90;;;-146.41;100.00;57768.22;4994756;28;1364;-70
2024/01/29 08:26:23;;;;;;;;;;;4.30;99.90;;;-146.41;100.00;57768.22;4967069;28;1175;-70
2024/01/29 08:28:50;;;;;;;;;;;4.50;99.90;;;-146.41;100.00;57768.22;4979543;28;1383;-71
2024/01/29 08:31:17;;;;;;;;;;;4.70;99.90;;;-146.41;100.00;57768.22;4976494;28;1305;-70
2024/01/29 08:33:44;;;;;;;;;;;4.80;99.90;;;-146.41;100.00;57768.22;4979357;28;1288;-70
2024/01/29 08:36:11;;;;;;;;;;;5.10;99.90;;;-146.41;100.00;57768.22;4996541;28;1350;-71
2024/01/29 08:38:37;;;;;;;;;;;5.20;99.90;;;-146.41;100.00;57768.22;4978454;28;1911;-70
2024/01/29 08:41:04;;;;;;;;;;;5.40;99.90;;;-146.41;100.00;57768.22;4981168;28;1234;-71
2024/01/29 08:43:31;;;;;;;;;;;5.50;99.90;;;-146.41;100.00;57768.22;4979191;28;1118;-70
2024/01/29 08:45:58;;;;;;;;;;;5.60;99.90;;;-146.41;100.00;57768.22;4996384;28;1253;-71
2024/01/29 08:48:26;;;;;;;;;;;5.70;99.90;;;-146.41;100.00;57768.22;4981476;28;1136;-71
2024/01/29 08:50:53;;;;;;;;;;;5.80;99.90;;;-146.41;100.00;57768.22;4977629;28;1316;-70
2024/01/29 08:53:20;;;;;;;;;;;5.80;99.90;;;-146.41;100.00;57768.22;4977268;28;1301;-70
2024/01/29 08:55:47;;;;;;;;;;;6.00;99.90;;;-146.41;100.00;57768.22;4980825;28;1334;-70
2024/01/29 08:58:14;;;;;;;;;;;6.00;99.90;;;-146.41;100.00;57768.22;4980219;28;1926;-70
2024/01/29 09:00:41;;;;;;;;;;;6.10;99.90;;;-146.41;100.00;57768.22;5009175;28;1232;-71
2024/01/29 09:03:09;;;;;;;;;;;6.20;99.90;;;-146.41;100.00;57768.22;4980647;28;1258;-70
2024/01/29 09:05:38;;;;;;;;;;;6.30;99.90;;;-146.41;100.00;57768.22;4977779;28;1230;-70
2024/01/29 09:08:06;;;;;;;;;;;6.30;99.90;;;-146.41;100.00;57768.22;4976611;28;1059;-71
2024/01/29 09:10:44;;;;;;;;;;;6.40;99.90;;;-146.41;100.00;57768.22;4979819;28;1173;-71
2024/01/29 09:13:12;;;;;;;;;;;6.40;99.90;;;-146.41;100.00;57768.22;4992457;28;1110;-71
2024/01/29 09:15:39;;;;;;;;;;;6.60;99.90;;;-146.41;100.00;57768.22;4978867;28;1447;-70
2024/01/29 09:18:06;;;;;;;;;;;6.70;99.90;;;-146.41;100.00;57768.22;4979805;28;1938;-71
2024/01/29 09:20:33;;;;;;;;;;;6.80;99.90;;;-146.41;100.00;57768.22;4978872;28;1431;-70
2024/01/29 09:23:00;;;;;;;;;;;6.80;99.90;;;-146.41;100.00;57768.22;4981946;28;1066;-70
2024/01/29 09:25:27;;;;;;;;;;;6.90;99.90;;;-146.41;100.00;57768.22;4995362;28;1340;-71
2024/01/29 09:27:54;;;;;;;;;;;7.00;99.90;;;-146.41;100.00;57768.22;4978858;28;1210;-71
2024/01/29 09:30:20;;;;;;;;;;;7.10;99.90;;;-146.41;100.00;57768.22;4978175;28;1111;-71
2024/01/29 09:32:47;;;;;;;;;;;7.20;99.90;;;-146.41;100.00;57768.22;4977413;28;1205;-70
2024/01/29 09:35:14;;;;;;;;;;;7.20;99.90;;;-146.41;100.00;57768.22;4980097;28;1395;-71
2024/01/29 09:37:42;;;;;;;;;;;7.30;99.90;;;-146.41;100.00;57768.22;4983621;28;1993;-71
2024/01/29 09:40:14;;;;;;;;;;;7.30;99.90;;;-146.41;100.00;57768.22;4980703;28;1213;-72
2024/01/29 09:42:45;;;;;;;;;;;7.30;99.90;;;-146.41;100.00;57768.22;4978156;28;1124;-71
2024/01/29 09:45:13;;;;;;;;;;;7.30;99.90;;;-146.41;100.00;57768.22;4978380;28;1229;-71
2024/01/29 09:47:40;;;;;;;;;;;7.30;99.90;;;-146.41;100.00;57768.22;4994064;28;1101;-71
2024/01/29 09:50:08;;;;;;;;;;;7.40;99.90;;;-146.41;100.00;57768.22;4978081;28;1096;-70
2024/01/29 09:52:37;;;;;;;;;;;7.40;99.90;;;-146.41;100.00;57768.22;4978089;28;1130;-70
2024/01/29 09:55:05;;;;;;;;;;;7.50;99.90;;;-146.41;100.00;57768.22;4975462;28;1274;-70
2024/01/29 09:57:32;;;;;;;;;;;7.50;99.90;;;-146.41;100.00;57768.22;4981388;28;1155;-71
2024/01/29 09:59:59;;;;;;;;;;;7.60;99.90;;;-146.41;100.00;57768.22;4995436;28;2013;-71
2024/01/29 10:02:27;;;;;;;;;;;7.70;99.90;;;-146.41;100.00;57768.22;4980455;28;1200;-71
2024/01/29 10:04:54;;;;;;;;;;;7.70;99.90;;;-146.41;100.00;57768.22;4976222;28;1332;-71
2024/01/29 10:07:21;;;;;;;;;;;7.80;99.90;;;-146.41;100.00;57768.22;4979082;28;1057;-70
2024/01/29 10:09:50;;;;;;;;;;;7.90;99.90;;;-146.41;100.00;57768.22;4993843;28;1115;-71
2024/01/29 10:12:22;;;;;;;;;;;7.90;99.90;;;-146.41;100.00;57768.22;4975238;28;1226;-71
2024/01/29 10:14:49;;;;;;;;;;;8.00;99.90;;;-146.41;100.00;57768.22;4975713;28;1270;-70
2024/01/29 10:17:16;;;;;;;;;;;8.10;99.90;;;-146.41;100.00;57768.22;5012388;28;2055;-71
2024/01/29 10:19:44;;;;;;;;;;;8.20;99.90;;;-146.41;100.00;57768.22;4975701;28;1987;-70
2024/01/29 10:22:12;;;;;;;;;;;8.30;99.90;;;-146.41;100.00;57768.22;4977620;28;1125;-71
2024/01/29 10:24:39;;;;;;;;;;;8.30;99.90;;;-146.41;100.00;57768.22;5009714;28;1390;-70
2024/01/29 10:27:07;;;;;;;;;;;8.40;99.90;;;-146.41;100.00;57768.22;4978141;28;1310;-71
2024/01/29 10:29:46;;;;;;;;;;;8.50;99.90;;;-146.41;100.00;57768.22;4977837;28;1095;-71
2024/01/29 10:32:13;;;;;;;;;;;8.50;99.90;;;-146.41;100.00;57768.22;4979932;28;1205;-70
2024/01/29 10:34:40;;;;;;;;;;;8.60;99.90;;;-146.41;100.00;57768.22;4980755;28;1309;-71
2024/01/29 10:37:07;;;;;;;;;;;8.70;99.90;;;-146.41;100.00;57768.22;4975776;28;1129;-71
2024/01/29 10:39:36;;;;;;;;;;;8.70;99.90;;;-146.41;100.00;57768.22;4977304;28;1946;-71
2024/01/29 10:42:14;;;;;;;;;;;8.70;99.90;;;-146.41;100.00;57768.22;4990806;28;1357;-71
2024/01/29 10:44:42;;;;;;;;;;;8.80;99.90;;;-146.41;100.00;57768.22;4992620;28;1804;-72
2024/01/29 10:47:15;;;;;;;;;;;8.90;99.90;;;-146.41;100.00;57768.22;4974801;28;1209;-70
2024/01/29 10:49:43;;;;;;;;;;;9.00;99.90;;;-146.41;100.00;57768.22;4977366;28;1377;-71
2024/01/29 10:52:12;;;;;;;;;;;9.00;99.90;;;-146.41;100.00;57768.22;4979520;28;1504;-71
2024/01/29 10:54:39;;;;;;;;;;;9.10;99.90;;;-146.41;100.00;57768.22;4978415;28;1648;-70
2024/01/29 10:57:09;;;;;;;;;;;9.20;99.90;;;-146.41;100.00;57768.22;4978104;28;1930;-70
2024/01/29 10:59:38;;;;;;;;;;;9.30;99.90;;;-146.41;100.00;57768.22;4980087;28;2013;-71
2024/01/29 11:02:09;;;;;;;;;;;9.40;99.90;;;-146.41;100.00;57768.22;4977561;28;1020;-71
2024/01/29 11:04:36;;;;;;;;;;;9.40;99.90;;;-146.41;100.00;57768.22;4977846;28;1462;-70
2024/01/29 11:07:12;;;;;;;;;;;9.50;99.90;;;-146.41;100.00;57768.22;4976187;28;1218;-71
2024/01/29 11:09:45;;;;;;;;;;;9.60;99.90;;;-146.41;100.00;57768.22;4976738;28;1232;-71